createdAt,value
2024-05-09T00:01:23.652Z,12.71
2024-05-09T00:03:57.400Z,12.69
2024-05-09T00:06:28.567Z,12.61
2024-05-09T00:08:59.537Z,12.59
2024-05-09T00:11:30.587Z,12.56
2024-05-09T00:14:01.695Z,12.48
2024-05-09T00:16:32.705Z,12.49
2024-05-09T00:19:06.580Z,12.45
2024-05-09T00:21:37.700Z,12.39
2024-05-09T00:24:09.064Z,12.36
2024-05-09T00:26:40.267Z,12.30
2024-05-09T00:29:11.329Z,12.29
2024-05-09T00:31:42.410Z,12.22
2024-05-09T00:34:16.335Z,12.22
2024-05-09T00:36:47.406Z,12.18
2024-05-09T00:39:18.446Z,12.12
2024-05-09T00:41:49.559Z,12.09
2024-05-09T00:44:21.030Z,12.07
2024-05-09T00:46:55.093Z,12.03
2024-05-09T00:49:30.442Z,11.99
2024-05-09T00:52:02.482Z,11.97
2024-05-09T00:54:34.476Z,11.94
2024-05-09T00:57:07.729Z,11.89
2024-05-09T00:59:38.965Z,11.85
2024-05-09T01:02:10.605Z,11.82
2024-05-09T01:04:44.532Z,11.77
2024-05-09T01:07:16.635Z,11.73
2024-05-09T01:09:47.672Z,11.72
2024-05-09T01:12:18.781Z,11.66
2024-05-09T01:14:50.061Z,11.60
2024-05-09T01:17:25.874Z,11.60
2024-05-09T01:20:01.089Z,11.55
2024-05-09T01:22:34.148Z,11.52
2024-05-09T01:25:08.322Z,11.48
2024-05-09T01:27:39.410Z,11.45
2024-05-09T01:30:17.023Z,11.39
2024-05-09T01:32:51.332Z,11.36
2024-05-09T01:35:23.991Z,11.30
2024-05-09T01:37:54.460Z,11.29
2024-05-09T01:40:36.355Z,11.23
2024-05-09T01:43:10.848Z,11.18
2024-05-09T01:45:42.305Z,11.15
2024-05-09T01:48:12.805Z,11.11
2024-05-09T01:50:43.737Z,11.06
2024-05-09T01:53:15.591Z,11.04
2024-05-09T01:55:48.506Z,11.00
2024-05-09T01:58:19.165Z,10.97
2024-05-09T02:00:49.430Z,10.91
2024-05-09T02:03:19.916Z,10.86
2024-05-09T02:05:51.257Z,10.84
2024-05-09T02:08:22.895Z,10.78
2024-05-09T02:10:55.913Z,10.72
2024-05-09T02:13:26.176Z,10.66
2024-05-09T02:15:56.483Z,10.64
2024-05-09T02:18:26.759Z,10.57
2024-05-09T02:20:56.925Z,10.53
2024-05-09T02:23:27.096Z,10.52
2024-05-09T02:26:00.054Z,10.48
2024-05-09T02:28:30.280Z,10.45
2024-05-09T02:31:00.486Z,10.42
2024-05-09T02:33:31.355Z,10.38
2024-05-09T02:36:01.711Z,10.36
2024-05-09T02:38:36.255Z,10.34
2024-05-09T02:41:10.803Z,10.28
2024-05-09T02:43:39.115Z,10.21
2024-05-09T02:46:11.092Z,10.15
2024-05-09T02:48:39.478Z,10.11
2024-05-09T02:51:10.612Z,10.06
2024-05-09T02:53:39.402Z,10.00
2024-05-09T02:56:13.797Z,9.96
2024-05-09T02:58:42.167Z,9.94
2024-05-09T03:01:13.190Z,9.90
2024-05-09T03:03:45.777Z,9.86
2024-05-09T03:06:16.869Z,9.82
2024-05-09T03:08:51.919Z,9.76
2024-05-09T03:11:35.633Z,9.75
2024-05-09T03:14:04.002Z,9.73
2024-05-09T03:16:35.061Z,9.70
2024-05-09T03:19:03.406Z,9.65
2024-05-09T03:21:34.516Z,9.63
2024-05-09T03:24:02.987Z,9.60
2024-05-09T03:26:36.814Z,9.58
2024-05-09T03:29:05.220Z,9.59
2024-05-09T03:31:36.270Z,9.59
2024-05-09T03:34:04.877Z,9.58
2024-05-09T03:36:36.073Z,9.54
2024-05-09T03:39:07.017Z,9.52
2024-05-09T03:41:40.940Z,9.51
2024-05-09T03:44:12.014Z,9.48
2024-05-09T03:46:40.761Z,9.43
2024-05-09T03:49:11.975Z,9.41
2024-05-09T03:51:43.258Z,9.39
2024-05-09T03:54:11.477Z,9.38
2024-05-09T03:56:45.388Z,9.36
2024-05-09T03:59:13.755Z,9.35
2024-05-09T04:01:45.138Z,9.36
2024-05-09T04:04:13.620Z,9.36
2024-05-09T04:06:45.734Z,9.35
2024-05-09T04:09:14.182Z,9.36
2024-05-09T04:11:47.996Z,9.39
2024-05-09T04:14:16.216Z,9.39
2024-05-09T04:16:47.244Z,9.41
2024-05-09T04:19:15.683Z,9.43
2024-05-09T04:21:46.773Z,9.43
2024-05-09T04:24:14.909Z,9.46
2024-05-09T04:26:48.797Z,9.46
2024-05-09T04:29:17.062Z,9.48
2024-05-09T04:31:48.190Z,9.47
2024-05-09T04:34:16.587Z,9.52
2024-05-09T04:36:47.722Z,9.55
2024-05-09T04:39:16.020Z,9.55
2024-05-09T04:41:49.762Z,9.61
2024-05-09T04:44:18.154Z,9.58
2024-05-09T04:46:50.280Z,9.62
2024-05-09T04:49:18.103Z,9.64
2024-05-09T04:51:48.386Z,9.65
2024-05-09T04:54:26.370Z,9.69
2024-05-09T04:57:07.857Z,9.72
2024-05-09T04:59:36.922Z,9.75
2024-05-09T05:02:08.423Z,9.78
2024-05-09T05:04:36.626Z,9.82
2024-05-09T05:07:07.132Z,9.90
2024-05-09T05:09:44.544Z,9.96
2024-05-09T05:12:38.239Z,10.01
2024-05-09T05:15:09.664Z,10.02
2024-05-09T05:17:40.842Z,10.03
2024-05-09T05:20:15.049Z,10.09
2024-05-09T05:22:45.724Z,10.10
2024-05-09T05:25:13.488Z,10.18
2024-05-09T05:27:46.371Z,10.24
2024-05-09T05:30:21.138Z,10.26
2024-05-09T05:32:55.689Z,10.37
2024-05-09T05:35:23.515Z,10.42
2024-05-09T05:37:54.547Z,10.48
2024-05-09T05:40:32.049Z,10.53
2024-05-09T05:43:11.196Z,10.61
2024-05-09T05:45:39.714Z,10.69
2024-05-09T05:48:11.236Z,10.71
2024-05-09T05:50:39.786Z,10.74
2024-05-09T05:53:11.126Z,10.78
2024-05-09T05:55:41.200Z,10.82
2024-05-09T05:58:15.950Z,10.89
2024-05-09T06:00:44.518Z,10.92
2024-05-09T06:03:16.124Z,10.94
2024-05-09T06:05:46.436Z,10.98
2024-05-09T06:08:17.740Z,11.00
2024-05-09T06:10:46.384Z,11.07
2024-05-09T06:13:21.368Z,11.15
2024-05-09T06:15:49.751Z,11.20
2024-05-09T06:18:21.898Z,11.23
2024-05-09T06:20:49.610Z,11.31
2024-05-09T06:23:19.876Z,11.34
2024-05-09T06:25:47.667Z,11.42
2024-05-09T06:28:20.582Z,11.50
2024-05-09T06:30:48.091Z,11.57
2024-05-09T06:33:18.579Z,11.69
2024-05-09T06:35:47.259Z,11.79
2024-05-09T06:38:18.373Z,11.92
2024-05-09T06:40:46.818Z,12.01
2024-05-09T06:43:20.291Z,12.10
2024-05-09T06:45:48.702Z,12.14
2024-05-09T06:48:22.131Z,12.19
2024-05-09T06:50:51.106Z,12.26
2024-05-09T06:53:25.505Z,12.34
2024-05-09T06:55:53.701Z,12.43
2024-05-09T06:58:27.382Z,12.56
2024-05-09T07:00:55.233Z,12.72
2024-05-09T07:03:26.115Z,12.75
2024-05-09T07:05:54.158Z,12.90
2024-05-09T07:08:24.441Z,13.03
2024-05-09T07:10:52.110Z,13.19
2024-05-09T07:13:22.329Z,13.24
2024-05-09T07:15:52.627Z,13.34
2024-05-09T07:18:23.488Z,13.42
2024-05-09T07:20:51.270Z,13.68
2024-05-09T07:23:21.789Z,13.93
2024-05-09T07:25:49.539Z,14.29
2024-05-09T07:28:20.952Z,14.50
2024-05-09T07:30:56.445Z,14.60
2024-05-09T07:33:27.001Z,14.74
2024-05-09T07:35:54.715Z,14.90
2024-05-09T07:38:24.982Z,15.40
2024-05-09T07:40:52.663Z,15.62
2024-05-09T07:43:22.826Z,15.75
2024-05-09T07:45:55.206Z,15.92
2024-05-09T07:50:00.331Z,16.25
2024-05-09T07:53:52.144Z,16.41
2024-05-09T07:56:23.851Z,16.62
2024-05-09T07:58:55.897Z,16.83
2024-05-09T08:01:27.305Z,17.03
2024-05-09T08:03:57.876Z,17.10
2024-05-09T08:06:26.539Z,17.25
2024-05-09T08:08:59.122Z,17.40
2024-05-09T08:11:28.523Z,17.53
2024-05-09T08:13:58.731Z,17.57
2024-05-09T08:16:29.026Z,17.75
2024-05-09T08:18:59.262Z,17.83
2024-05-09T08:21:27.261Z,17.90
2024-05-09T08:23:57.436Z,17.84
2024-05-09T08:26:24.957Z,17.84
2024-05-09T08:28:55.081Z,18.08
2024-05-09T08:31:22.841Z,18.15
2024-05-09T08:33:56.814Z,18.16
2024-05-09T08:36:24.309Z,18.43
2024-05-09T08:38:54.485Z,18.49
2024-05-09T08:41:22.222Z,18.44
2024-05-09T08:43:52.616Z,18.49
2024-05-09T08:46:20.371Z,18.60
2024-05-09T08:48:52.818Z,18.74
2024-05-09T08:51:23.230Z,18.83
2024-05-09T08:53:53.442Z,18.66
2024-05-09T08:56:32.233Z,18.66
2024-05-09T08:59:15.939Z,18.50
2024-05-09T09:01:54.569Z,18.58
2024-05-09T09:04:32.514Z,18.39
2024-05-09T09:07:11.363Z,18.62
2024-05-09T09:09:54.921Z,18.76
2024-05-09T09:12:28.143Z,18.75
2024-05-09T09:15:04.040Z,18.78
2024-05-09T09:17:32.221Z,18.83
2024-05-09T09:20:03.043Z,18.76
2024-05-09T09:22:33.835Z,18.76
2024-05-09T09:25:04.538Z,18.90
2024-05-09T09:27:34.354Z,18.98
2024-05-09T09:30:06.827Z,19.23
2024-05-09T09:32:36.426Z,19.35
2024-05-09T09:35:06.781Z,19.52
2024-05-09T09:37:38.401Z,19.40
2024-05-09T09:40:13.344Z,19.55
2024-05-09T09:42:43.496Z,19.76
2024-05-09T09:45:14.288Z,19.94
2024-05-09T09:47:43.428Z,19.95
2024-05-09T09:50:20.471Z,19.96
2024-05-09T09:52:55.427Z,20.07
2024-05-09T09:55:26.594Z,20.00
2024-05-09T09:57:56.520Z,19.98
2024-05-09T10:00:33.122Z,20.23
2024-05-09T10:03:01.981Z,20.42
2024-05-09T10:05:33.253Z,20.53
2024-05-09T10:08:05.595Z,20.57
2024-05-09T10:10:37.456Z,20.87
2024-05-09T10:13:05.730Z,21.01
2024-05-09T10:15:48.375Z,20.71
2024-05-09T10:18:16.506Z,20.57
2024-05-09T10:20:47.308Z,20.76
2024-05-09T10:23:36.493Z,20.91
2024-05-09T10:26:07.866Z,21.13
2024-05-09T10:28:37.188Z,20.95
2024-05-09T10:31:11.741Z,20.87
2024-05-09T10:33:40.206Z,20.95
2024-05-09T10:36:17.561Z,21.36
2024-05-09T10:38:49.313Z,21.70
2024-05-09T10:41:20.460Z,21.97
2024-05-09T10:43:48.759Z,22.29
2024-05-09T10:46:19.955Z,22.00
2024-05-09T10:48:48.780Z,21.96
2024-05-09T10:51:21.742Z,22.03
2024-05-09T10:53:52.774Z,21.96
2024-05-09T10:56:22.943Z,21.82
2024-05-09T10:58:52.335Z,21.70
2024-05-09T11:01:22.633Z,21.53
2024-05-09T11:03:51.101Z,21.32
2024-05-09T11:06:21.693Z,21.54
2024-05-09T11:08:52.432Z,21.82
2024-05-09T11:11:23.012Z,21.37
2024-05-09T11:13:50.607Z,21.29
2024-05-09T11:16:22.607Z,21.65
2024-05-09T11:18:55.113Z,21.55
2024-05-09T11:21:25.993Z,21.66
2024-05-09T11:23:57.266Z,21.54
2024-05-09T11:26:29.728Z,21.55
2024-05-09T11:28:57.241Z,21.72
2024-05-09T11:31:27.908Z,21.91
2024-05-09T11:33:55.590Z,21.86
2024-05-09T11:36:25.856Z,22.09
2024-05-09T11:38:56.040Z,22.36
2024-05-09T11:41:27.445Z,22.22
2024-05-09T11:43:54.890Z,22.30
2024-05-09T11:46:25.351Z,22.58
2024-05-09T11:48:53.065Z,22.61
2024-05-09T11:51:23.502Z,22.40
2024-05-09T11:53:50.997Z,22.77
2024-05-09T11:56:23.901Z,22.58
2024-05-09T11:58:51.400Z,22.95
2024-05-09T12:01:23.073Z,22.88
2024-05-09T12:03:51.934Z,22.60
2024-05-09T12:06:22.800Z,22.99
2024-05-09T12:08:50.386Z,23.23
2024-05-09T12:11:20.632Z,23.49
2024-05-09T12:13:50.866Z,23.32
2024-05-09T12:16:21.116Z,23.56
2024-05-09T12:18:48.806Z,23.13
2024-05-09T12:21:19.101Z,22.96
2024-05-09T12:23:46.564Z,22.81
2024-05-09T12:26:16.811Z,22.82
2024-05-09T12:28:44.432Z,22.65
2024-05-09T12:31:17.344Z,22.34
2024-05-09T12:33:46.330Z,22.11
2024-05-09T12:36:16.709Z,22.34
2024-05-09T12:38:44.302Z,22.38
2024-05-09T12:41:14.628Z,22.62
2024-05-09T12:43:42.100Z,22.81
2024-05-09T12:46:12.382Z,22.62
2024-05-09T12:48:42.763Z,22.67
2024-05-09T12:51:13.025Z,22.72
2024-05-09T12:53:40.539Z,22.74
2024-05-09T12:56:11.187Z,22.63
2024-05-09T12:58:38.768Z,22.54
2024-05-09T13:01:08.988Z,22.38
2024-05-09T13:03:37.014Z,22.75
2024-05-09T13:06:10.164Z,22.79
2024-05-09T13:08:37.881Z,23.06
2024-05-09T13:11:08.561Z,22.90
2024-05-09T13:13:36.128Z,23.20
2024-05-09T13:16:06.424Z,23.38
2024-05-09T13:18:36.033Z,23.79
2024-05-09T13:21:06.264Z,23.89
2024-05-09T13:23:39.875Z,24.09
2024-05-09T13:26:07.445Z,24.16
2024-05-09T13:28:37.657Z,24.21
2024-05-09T13:31:05.419Z,23.94
2024-05-09T13:33:36.498Z,23.42
2024-05-09T13:36:04.471Z,23.15
2024-05-09T13:38:34.691Z,23.22
2024-05-09T13:41:05.195Z,23.36
2024-05-09T13:43:35.390Z,23.58
2024-05-09T13:46:03.332Z,23.70
2024-05-09T13:48:34.063Z,23.72
2024-05-09T13:51:01.629Z,23.62
2024-05-09T13:53:31.940Z,23.72
2024-05-09T13:55:59.505Z,24.16
2024-05-09T13:58:32.452Z,24.21
2024-05-09T14:01:00.101Z,24.37
2024-05-09T14:03:30.664Z,24.39
2024-05-09T14:05:58.446Z,24.54
2024-05-09T14:08:28.805Z,24.69
2024-05-09T14:10:56.561Z,24.89
2024-05-09T14:13:26.946Z,24.93
2024-05-09T14:15:57.492Z,25.03
2024-05-09T14:18:28.189Z,25.02
2024-05-09T14:20:55.739Z,25.16
2024-05-09T14:23:25.883Z,24.70
2024-05-09T14:25:53.763Z,24.46
2024-05-09T14:28:26.481Z,24.78
2024-05-09T14:30:57.003Z,24.73
2024-05-09T14:33:28.153Z,24.60
2024-05-09T14:35:56.058Z,24.55
2024-05-09T14:38:26.731Z,24.57
2024-05-09T14:40:54.485Z,24.48
2024-05-09T14:43:24.917Z,24.45
2024-05-09T14:45:53.784Z,24.61
2024-05-09T14:48:27.204Z,24.66
2024-05-09T14:50:54.994Z,24.27
2024-05-09T14:53:26.756Z,24.15
2024-05-09T14:55:54.590Z,24.03
2024-05-09T14:58:24.890Z,24.29
2024-05-09T15:00:52.894Z,24.42
2024-05-09T15:03:23.479Z,24.51
2024-05-09T15:05:56.734Z,24.78
2024-05-09T15:08:24.630Z,24.22
2024-05-09T15:10:54.895Z,23.85
2024-05-09T15:13:22.642Z,24.24
2024-05-09T15:15:53.024Z,24.11
2024-05-09T15:18:20.890Z,24.02
2024-05-09T15:20:51.354Z,24.26
2024-05-09T15:23:21.626Z,24.52
2024-05-09T15:25:52.144Z,24.76
2024-05-09T15:28:19.874Z,23.60
2024-05-09T15:30:50.589Z,23.85
2024-05-09T15:33:18.394Z,23.83
2024-05-09T15:35:48.612Z,23.72
2024-05-09T15:38:16.674Z,23.61
2024-05-09T15:40:49.813Z,23.44
2024-05-09T15:43:17.615Z,23.54
2024-05-09T15:45:48.110Z,23.53
2024-05-09T15:48:15.909Z,23.74
2024-05-09T15:50:46.316Z,23.38
2024-05-09T15:53:16.708Z,23.66
2024-05-09T15:55:46.933Z,23.60
2024-05-09T15:58:17.716Z,23.32
2024-05-09T16:00:47.150Z,23.28
2024-05-09T16:03:21.451Z,23.64
2024-05-09T16:05:49.184Z,23.85
2024-05-09T16:08:19.688Z,23.83
2024-05-09T16:10:50.164Z,23.73
2024-05-09T16:13:20.733Z,23.33
2024-05-09T16:15:48.622Z,23.18
2024-05-09T16:18:19.854Z,22.68
2024-05-09T16:20:49.953Z,23.06
2024-05-09T16:23:20.746Z,22.92
2024-05-09T16:25:51.719Z,22.87
2024-05-09T16:28:24.518Z,22.98
2024-05-09T16:30:52.679Z,23.30
2024-05-09T16:33:24.034Z,23.38
2024-05-09T16:35:52.232Z,23.57
2024-05-09T16:38:22.796Z,23.47
2024-05-09T16:40:53.162Z,23.44
2024-05-09T16:43:23.576Z,23.57
2024-05-09T16:45:51.391Z,23.64
2024-05-09T16:48:22.247Z,23.01
2024-05-09T16:50:49.860Z,23.08
2024-05-09T16:53:20.026Z,23.31
2024-05-09T16:55:47.541Z,23.39
2024-05-09T16:58:20.934Z,23.42
2024-05-09T17:00:48.600Z,23.24
2024-05-09T17:03:19.203Z,23.43
2024-05-09T17:05:47.743Z,23.49
2024-05-09T17:08:20.167Z,23.51
2024-05-09T17:10:50.044Z,23.58
2024-05-09T17:13:23.374Z,23.58
2024-05-09T17:15:53.970Z,23.58
2024-05-09T17:18:24.350Z,23.47
2024-05-09T17:20:52.666Z,23.43
2024-05-09T17:23:22.931Z,23.45
2024-05-09T17:25:50.497Z,23.41
2024-05-09T17:28:23.567Z,23.28
2024-05-09T17:30:51.262Z,23.15
2024-05-09T17:33:21.688Z,23.16
2024-05-09T17:35:51.601Z,23.19
2024-05-09T17:38:23.124Z,23.16
2024-05-09T17:40:51.120Z,23.13
2024-05-09T17:43:24.465Z,23.11
2024-05-09T17:45:55.050Z,23.01
2024-05-09T17:48:22.788Z,23.00
2024-05-09T17:50:53.654Z,22.93
2024-05-09T17:53:21.718Z,22.87
2024-05-09T17:55:54.092Z,22.77
2024-05-09T17:58:24.511Z,22.70
2024-05-09T18:00:55.018Z,22.64
2024-05-09T18:03:23.725Z,22.59
2024-05-09T18:05:54.912Z,22.52
2024-05-09T18:08:22.501Z,22.41
2024-05-09T18:10:55.216Z,22.34
2024-05-09T18:13:27.179Z,22.24
2024-05-09T18:15:57.876Z,22.20
2024-05-09T18:18:25.657Z,22.11
2024-05-09T18:20:55.936Z,21.99
2024-05-09T18:23:23.626Z,21.94
2024-05-09T18:25:54.935Z,21.88
2024-05-09T18:28:25.735Z,21.77
2024-05-09T18:30:56.015Z,21.66
2024-05-09T18:33:24.948Z,21.52
2024-05-09T18:35:55.254Z,21.44
2024-05-09T18:38:27.230Z,21.29
2024-05-09T18:40:54.900Z,21.15
2024-05-09T18:43:34.825Z,21.01
2024-05-09T18:46:06.127Z,20.90
2024-05-09T18:48:36.921Z,20.79
2024-05-09T18:51:05.843Z,20.68
2024-05-09T18:53:36.367Z,20.54
2024-05-09T18:56:03.994Z,20.40
2024-05-09T18:58:37.048Z,20.28
2024-05-09T19:01:05.002Z,20.11
2024-05-09T19:03:35.594Z,19.92
2024-05-09T19:06:03.519Z,19.76
2024-05-09T19:08:33.858Z,19.63
2024-05-09T19:11:02.244Z,19.53
2024-05-09T19:13:32.660Z,19.41
2024-05-09T19:16:03.559Z,19.27
2024-05-09T19:18:33.945Z,19.19
2024-05-09T19:21:01.499Z,19.16
2024-05-09T19:23:35.312Z,19.12
2024-05-09T19:26:05.716Z,18.98
2024-05-09T19:28:35.877Z,18.97
2024-05-09T19:31:06.051Z,18.87
2024-05-09T19:33:37.096Z,18.82
2024-05-09T19:36:05.568Z,18.83
2024-05-09T19:38:36.101Z,18.78
2024-05-09T19:41:03.681Z,18.63
2024-05-09T19:43:36.122Z,18.51
2024-05-09T19:46:06.652Z,18.38
2024-05-09T19:48:37.504Z,18.24
2024-05-09T19:51:05.602Z,18.11
2024-05-09T19:53:35.793Z,18.02
2024-05-09T19:56:03.335Z,17.93
2024-05-09T19:58:33.648Z,17.85
2024-05-09T20:01:01.438Z,17.76
2024-05-09T20:03:37.230Z,17.67
2024-05-09T20:06:05.286Z,17.57
2024-05-09T20:08:36.005Z,17.52
2024-05-09T20:11:03.552Z,17.45
2024-05-09T20:13:33.837Z,17.33
2024-05-09T20:16:01.673Z,17.23
2024-05-09T20:18:34.801Z,17.13
2024-05-09T20:21:02.595Z,17.00
2024-05-09T20:23:32.840Z,16.88
2024-05-09T20:26:00.447Z,16.76
2024-05-09T20:28:30.665Z,16.61
2024-05-09T20:30:58.311Z,16.55
2024-05-09T20:33:28.459Z,16.46
2024-05-09T20:36:01.483Z,16.33
2024-05-09T20:38:32.259Z,16.25
2024-05-09T20:40:59.770Z,16.15
2024-05-09T20:43:30.359Z,16.08
2024-05-09T20:45:58.258Z,15.97
2024-05-09T20:48:28.559Z,15.88
2024-05-09T20:50:58.825Z,15.85
2024-05-09T20:53:28.982Z,15.77
2024-05-09T20:55:56.809Z,15.68
2024-05-09T20:58:27.233Z,15.61
2024-05-09T21:00:54.839Z,15.54
2024-05-09T21:03:25.292Z,15.49
2024-05-09T21:05:52.946Z,15.37
2024-05-09T21:08:27.038Z,15.40
2024-05-09T21:10:54.645Z,15.30
2024-05-09T21:13:24.910Z,15.26
2024-05-09T21:15:52.520Z,15.17
2024-05-09T21:18:24.363Z,15.12
2024-05-09T21:20:51.940Z,15.03
2024-05-09T21:23:22.077Z,14.99
2024-05-09T21:25:52.249Z,14.93
2024-05-09T21:28:22.426Z,14.84
2024-05-09T21:30:49.987Z,14.72
2024-05-09T21:33:20.344Z,14.57
2024-05-09T21:35:48.255Z,14.54
2024-05-09T21:38:18.454Z,14.43
2024-05-09T21:40:46.721Z,14.35
2024-05-09T21:43:19.795Z,14.26
2024-05-09T21:45:47.723Z,14.19
2024-05-09T21:48:17.947Z,14.16
2024-05-09T21:50:45.480Z,14.11
2024-05-09T21:53:15.942Z,14.03
2024-05-09T21:55:43.499Z,13.96
2024-05-09T21:58:14.488Z,13.90
2024-05-09T22:00:46.867Z,13.83
2024-05-09T22:03:18.168Z,13.79
2024-05-09T22:05:46.707Z,13.71
2024-05-09T22:08:17.789Z,13.65
2024-05-09T22:10:46.423Z,13.63
2024-05-09T22:13:19.480Z,13.57
2024-05-09T22:15:50.641Z,13.51
2024-05-09T22:18:21.796Z,13.41
2024-05-09T22:20:49.324Z,13.35
2024-05-09T22:23:19.507Z,13.29
2024-05-09T22:25:47.121Z,13.25
2024-05-09T22:28:18.594Z,13.19
2024-05-09T22:30:50.799Z,13.12
2024-05-09T22:33:21.137Z,13.08
2024-05-09T22:35:48.717Z,13.00
2024-05-09T22:38:18.902Z,12.96
2024-05-09T22:40:49.243Z,12.90
2024-05-09T22:43:25.173Z,12.84
2024-05-09T22:45:56.112Z,12.77
2024-05-09T22:48:26.717Z,12.72
2024-05-09T22:50:55.145Z,12.65
2024-05-09T22:53:26.677Z,12.62
2024-05-09T22:55:54.533Z,12.58
2024-05-09T22:58:25.936Z,12.50
2024-05-09T23:00:56.324Z,12.46
2024-05-09T23:03:26.862Z,12.39
2024-05-09T23:05:54.523Z,12.39
2024-05-09T23:08:24.663Z,12.35
2024-05-09T23:10:52.343Z,12.32
2024-05-09T23:13:22.900Z,12.26
2024-05-09T23:15:50.496Z,12.20
2024-05-09T23:18:23.490Z,12.13
2024-05-09T23:20:52.077Z,12.11
2024-05-09T23:23:22.815Z,11.97
2024-05-09T23:25:50.294Z,12.02
2024-05-09T23:28:20.537Z,11.93
2024-05-09T23:30:48.146Z,11.86
2024-05-09T23:33:18.608Z,11.85
2024-05-09T23:35:48.925Z,11.77
2024-05-09T23:38:22.478Z,11.74
2024-05-09T23:40:51.458Z,11.67
2024-05-09T23:43:22.400Z,11.65
2024-05-09T23:45:49.929Z,11.62
2024-05-09T23:48:20.247Z,11.56
2024-05-09T23:50:50.559Z,11.50
2024-05-09T23:53:20.769Z,11.45
2024-05-09T23:55:48.276Z,11.41
2024-05-09T23:58:18.431Z,11.38
